createdAt,value
2019-06-07T00:00:40.300Z,11.80
2019-06-07T00:05:41.710Z,12.03
2019-06-07T00:10:43.784Z,13.13
2019-06-07T00:15:45.944Z,12.03
2019-06-07T00:20:48.034Z,12.63
2019-06-07T00:25:50.114Z,12.47
2019-06-07T00:30:52.816Z,13.40
2019-06-07T00:35:55.099Z,13.57
2019-06-07T00:40:57.147Z,13.53
2019-06-07T00:45:59.170Z,14.93
2019-06-07T00:51:01.206Z,12.87
2019-06-07T00:56:03.247Z,13.73
2019-06-07T01:01:05.447Z,13.77
2019-06-07T01:06:07.549Z,13.77
2019-06-07T01:11:09.632Z,14.73
2019-06-07T01:16:11.771Z,14.40
2019-06-07T01:21:15.905Z,13.67
2019-06-07T01:26:20.530Z,13.90
2019-06-07T01:31:24.850Z,14.77
2019-06-07T01:36:29.564Z,15.07
2019-06-07T01:41:30.711Z,13.63
2019-06-07T01:46:33.212Z,14.43
2019-06-07T01:51:35.584Z,15.17
2019-06-07T01:56:37.671Z,15.73
2019-06-07T02:01:39.718Z,15.70
2019-06-07T02:06:41.776Z,15.33
2019-06-07T02:11:43.855Z,14.87
2019-06-07T02:16:45.911Z,15.93
2019-06-07T02:21:47.970Z,14.77
2019-06-07T02:26:49.999Z,15.27
2019-06-07T02:31:52.037Z,13.30
2019-06-07T02:36:54.434Z,17.67
2019-06-07T02:41:56.846Z,14.70
2019-06-07T02:46:59.014Z,13.37
2019-06-07T02:52:01.361Z,14.23
2019-06-07T02:57:03.461Z,13.93
2019-06-07T03:02:05.528Z,13.13
2019-06-07T03:07:10.790Z,13.40
2019-06-07T03:12:14.224Z,13.03
2019-06-07T03:17:41.724Z,15.67
2019-06-07T03:22:43.759Z,13.47
2019-06-07T03:27:49.944Z,13.90
2019-06-07T03:32:52.105Z,13.43
2019-06-07T03:37:54.507Z,14.10
2019-06-07T03:42:56.604Z,13.80
2019-06-07T03:47:58.672Z,14.70
2019-06-07T03:53:00.709Z,17.37
2019-06-07T03:58:31.516Z,15.53
2019-06-07T04:03:06.669Z,15.63
2019-06-07T04:08:11.092Z,17.80
2019-06-07T04:13:13.138Z,15.93
2019-06-07T04:18:15.268Z,18.47
2019-06-07T04:23:27.855Z,16.07
2019-06-07T04:28:21.380Z,16.17
2019-06-07T04:33:24.193Z,17.00
2019-06-07T04:38:26.556Z,15.40
2019-06-07T04:43:31.464Z,20.23
2019-06-07T04:48:41.377Z,18.93
2019-06-07T04:53:43.078Z,14.77
2019-06-07T04:58:44.525Z,15.83
2019-06-07T05:03:46.558Z,18.47
2019-06-07T05:08:48.621Z,16.17
2019-06-07T05:13:50.677Z,16.93
2019-06-07T05:18:52.709Z,16.50
2019-06-07T05:24:06.602Z,17.43
2019-06-07T05:28:58.813Z,16.87
2019-06-07T05:34:00.864Z,18.27
2019-06-07T05:39:04.884Z,16.77
2019-06-07T05:44:12.839Z,16.17
2019-06-07T05:49:10.936Z,15.67
2019-06-07T05:54:12.994Z,15.63
2019-06-07T05:59:15.071Z,14.53
2019-06-07T06:04:19.642Z,15.40
2019-06-07T06:09:21.666Z,16.17
2019-06-07T06:14:23.704Z,14.90
2019-06-07T06:19:25.775Z,14.67
2019-06-07T06:24:28.868Z,16.63
2019-06-07T06:29:30.902Z,15.70
2019-06-07T06:34:40.158Z,13.80
2019-06-07T06:39:42.039Z,13.93
2019-06-07T06:44:46.411Z,15.77
2019-06-07T06:49:49.993Z,14.23
2019-06-07T06:55:00.156Z,14.03
2019-06-07T06:59:57.175Z,13.37
2019-06-07T07:04:59.235Z,13.83
2019-06-07T07:10:03.160Z,12.90
2019-06-07T07:15:06.664Z,14.57
2019-06-07T07:20:08.810Z,12.98
2019-06-07T07:25:11.192Z,13.18
2019-06-07T07:30:36.066Z,13.05
2019-06-07T07:35:17.986Z,13.80
2019-06-07T07:40:56.178Z,12.60
2019-06-07T07:45:23.987Z,12.45
2019-06-07T07:50:26.086Z,13.40
2019-06-07T07:55:28.221Z,13.32
2019-06-07T08:00:52.571Z,15.32
2019-06-07T08:05:42.921Z,13.83
2019-06-07T08:10:38.904Z,15.00
2019-06-07T08:15:40.958Z,13.18
2019-06-07T08:21:04.826Z,13.45
2019-06-07T08:25:47.183Z,14.55
2019-06-07T08:30:55.017Z,14.33
2019-06-07T08:41:10.734Z,13.48
2019-06-07T08:46:06.841Z,13.30
2019-06-07T08:51:08.184Z,11.78
2019-06-07T08:56:10.906Z,11.38
2019-06-07T09:01:13.103Z,9.63
2019-06-07T09:07:01.260Z,9.70
2019-06-07T09:11:19.104Z,9.08
2019-06-07T09:16:21.151Z,10.58
2019-06-07T09:21:23.237Z,10.25
2019-06-07T09:26:25.581Z,8.95
2019-06-07T09:31:51.073Z,10.03
2019-06-07T09:36:31.562Z,7.72
2019-06-07T09:41:46.957Z,8.83
2019-06-07T09:46:37.668Z,9.43
2019-06-07T09:51:39.797Z,10.10
2019-06-07T09:56:41.843Z,9.85
2019-06-07T10:01:43.891Z,9.18
2019-06-07T10:06:46.144Z,9.33
2019-06-07T10:11:48.334Z,9.80
2019-06-07T10:16:50.397Z,8.83
2019-06-07T10:21:52.431Z,9.63
2019-06-07T10:26:54.490Z,9.30
2019-06-07T10:31:56.622Z,9.15
2019-06-07T10:36:58.758Z,7.90
2019-06-07T10:42:00.993Z,7.58
2019-06-07T10:47:04.008Z,6.70
2019-06-07T10:52:07.998Z,7.90
2019-06-07T10:57:12.889Z,8.50
2019-06-07T11:02:14.282Z,9.35
2019-06-07T11:07:16.462Z,8.33
2019-06-07T11:12:19.270Z,7.85
2019-06-07T11:17:21.282Z,8.48
2019-06-07T11:22:26.085Z,8.65
2019-06-07T11:27:28.157Z,6.92
2019-06-07T11:32:30.731Z,7.17
2019-06-07T11:37:33.035Z,6.40
2019-06-07T11:42:35.127Z,7.70
2019-06-07T11:47:37.547Z,6.50
2019-06-07T11:52:39.574Z,6.10
2019-06-07T11:57:41.645Z,6.92
2019-06-07T12:02:43.707Z,6.55
2019-06-07T12:07:48.779Z,7.35
2019-06-07T12:12:50.809Z,6.15
2019-06-07T12:17:52.866Z,6.45
2019-06-07T12:22:54.904Z,6.87
2019-06-07T12:27:58.296Z,6.05
2019-06-07T12:33:00.342Z,5.45
2019-06-07T12:38:02.478Z,5.55
2019-06-07T12:43:04.527Z,4.90
2019-06-07T12:48:06.884Z,5.28
2019-06-07T12:53:09.316Z,4.97
2019-06-07T12:58:11.342Z,5.80
2019-06-07T13:03:14.231Z,5.60
2019-06-07T13:08:17.613Z,5.58
2019-06-07T13:13:20.986Z,6.00
2019-06-07T13:18:25.198Z,7.03
2019-06-07T13:23:28.900Z,6.03
2019-06-07T13:28:31.894Z,6.47
2019-06-07T13:33:38.670Z,5.83
2019-06-07T13:38:38.215Z,6.37
2019-06-07T13:43:40.377Z,5.92
2019-06-07T13:48:42.485Z,6.60
2019-06-07T13:53:44.580Z,5.62
2019-06-07T13:58:48.638Z,6.55
2019-06-07T14:03:50.830Z,5.50
2019-06-07T14:08:54.787Z,5.95
2019-06-07T14:13:58.734Z,5.37
2019-06-07T14:19:00.834Z,6.47
2019-06-07T14:24:03.103Z,7.03
2019-06-07T14:29:05.196Z,6.55
2019-06-07T14:34:07.341Z,6.00
2019-06-07T14:39:09.477Z,6.90
2019-06-07T14:44:11.534Z,6.95
2019-06-07T14:49:13.737Z,7.42
2019-06-07T14:54:15.902Z,6.95
2019-06-07T14:59:18.382Z,6.97
2019-06-07T15:04:20.448Z,7.33
2019-06-07T15:09:22.544Z,7.60
2019-06-07T15:14:24.830Z,7.65
2019-06-07T15:19:29.055Z,8.50
2019-06-07T15:24:35.354Z,7.85
2019-06-07T15:29:35.973Z,8.63
2019-06-07T15:34:38.456Z,9.50
2019-06-07T15:39:40.846Z,9.78
2019-06-07T15:44:42.887Z,9.73
2019-06-07T15:49:46.304Z,10.08
2019-06-07T15:54:48.393Z,10.90
2019-06-07T15:59:50.495Z,10.32
2019-06-07T16:04:57.186Z,9.08
2019-06-07T16:09:59.376Z,9.43
2019-06-07T16:15:01.687Z,9.25
2019-06-07T16:20:05.298Z,8.58
2019-06-07T16:25:09.565Z,7.85
2019-06-07T16:30:12.493Z,7.67
2019-06-07T16:35:23.371Z,6.75
2019-06-07T16:40:55.776Z,7.10
2019-06-07T16:46:03.370Z,5.85
2019-06-07T16:51:07.905Z,5.50
2019-06-07T16:56:10.112Z,6.03
2019-06-07T17:01:12.386Z,5.40
2019-06-07T17:06:17.482Z,6.20
2019-06-07T17:11:19.595Z,5.10
2019-06-07T17:16:24.405Z,5.40
2019-06-07T17:21:26.496Z,5.92
2019-06-07T17:26:28.607Z,5.28
2019-06-07T17:31:30.693Z,5.80
2019-06-07T17:36:32.722Z,5.80
2019-06-07T17:41:50.674Z,6.47
2019-06-07T17:46:39.367Z,6.33
2019-06-07T17:51:41.768Z,5.75
2019-06-07T17:56:44.559Z,6.20
2019-06-07T18:02:06.747Z,5.42
2019-06-07T18:06:53.624Z,6.47
2019-06-07T18:11:56.310Z,5.83
2019-06-07T18:16:59.019Z,6.20
2019-06-07T18:22:04.124Z,5.97
2019-06-07T18:27:07.221Z,5.97
2019-06-07T18:32:12.660Z,5.70
2019-06-07T18:37:13.484Z,5.97
2019-06-07T18:42:15.527Z,6.33
2019-06-07T18:47:17.590Z,5.58
2019-06-07T18:52:24.473Z,5.37
2019-06-07T18:57:26.527Z,5.72
2019-06-07T19:02:28.633Z,6.30
2019-06-07T19:07:30.711Z,6.60
2019-06-07T19:12:34.348Z,6.53
2019-06-07T19:17:39.423Z,6.50
2019-06-07T19:22:41.581Z,6.42
2019-06-07T19:27:43.682Z,6.08
2019-06-07T19:32:45.803Z,6.12
2019-06-07T19:37:47.897Z,6.05
2019-06-07T19:42:49.973Z,5.87
2019-06-07T19:47:52.385Z,6.72
2019-06-07T19:52:55.242Z,6.45
2019-06-07T19:57:57.589Z,7.05
2019-06-07T20:02:59.984Z,7.05
2019-06-07T20:08:02.816Z,6.58
2019-06-07T20:13:05.310Z,6.67
2019-06-07T20:18:07.763Z,7.55
2019-06-07T20:23:10.061Z,7.05
2019-06-07T20:28:12.182Z,7.37
2019-06-07T20:33:14.262Z,7.75
2019-06-07T20:38:16.278Z,7.35
2019-06-07T20:43:20.671Z,8.38
2019-06-07T20:48:22.735Z,9.88
2019-06-07T20:53:24.976Z,8.80
2019-06-07T20:58:27.022Z,7.83
2019-06-07T21:03:29.085Z,8.40
2019-06-07T21:08:31.153Z,8.03
2019-06-07T21:13:33.186Z,8.50
2019-06-07T21:18:35.250Z,8.75
2019-06-07T21:23:37.414Z,8.18
2019-06-07T21:28:39.934Z,8.60
2019-06-07T21:33:42.959Z,8.93
2019-06-07T21:38:44.995Z,8.93
2019-06-07T21:43:47.007Z,9.03
2019-06-07T21:48:49.043Z,9.10
2019-06-07T21:53:51.101Z,8.90
2019-06-07T21:58:53.330Z,8.65
2019-06-07T22:03:55.373Z,8.25
2019-06-07T22:08:57.423Z,8.35
2019-06-07T22:13:59.560Z,8.78
2019-06-07T22:19:01.647Z,8.73
2019-06-07T22:24:04.794Z,7.80
2019-06-07T22:29:08.157Z,7.87
2019-06-07T22:34:10.712Z,7.47
2019-06-07T22:39:13.942Z,5.15
2019-06-07T22:44:16.114Z,3.80
2019-06-07T22:49:19.517Z,3.05
2019-06-07T22:54:21.969Z,2.67
2019-06-07T22:59:24.056Z,2.35
2019-06-07T23:04:26.095Z,2.60
2019-06-07T23:09:28.126Z,2.52
2019-06-07T23:14:30.147Z,2.17
2019-06-07T23:19:32.191Z,2.00
2019-06-07T23:24:34.112Z,2.07
2019-06-07T23:29:36.182Z,1.80
2019-06-07T23:34:38.237Z,1.87
2019-06-07T23:39:40.255Z,1.80
2019-06-07T23:44:42.508Z,1.50
2019-06-07T23:49:44.583Z,1.60
2019-06-07T23:54:46.628Z,1.80
2019-06-07T23:59:48.661Z,1.80
